createdAt,value
2022-08-27T00:02:07.133Z,12.77
2022-08-27T00:04:35.759Z,13.02
2022-08-27T00:07:05.437Z,12.57
2022-08-27T00:09:33.260Z,13.07
2022-08-27T00:12:01.290Z,12.57
2022-08-27T00:14:29.693Z,13.07
2022-08-27T00:16:58.001Z,13.43
2022-08-27T00:19:25.998Z,13.15
2022-08-27T00:21:55.833Z,12.10
2022-08-27T00:24:23.834Z,13.13
2022-08-27T00:26:53.485Z,13.50
2022-08-27T00:29:21.825Z,12.85
2022-08-27T00:31:51.916Z,13.23
2022-08-27T00:34:23.011Z,13.25
2022-08-27T00:36:51.634Z,13.27
2022-08-27T00:39:20.632Z,13.35
2022-08-27T00:41:49.005Z,13.45
2022-08-27T00:44:17.374Z,13.75
2022-08-27T00:46:49.859Z,13.68
2022-08-27T00:49:20.888Z,13.20
2022-08-27T00:52:00.298Z,13.95
2022-08-27T00:54:28.979Z,14.30
2022-08-27T00:56:58.934Z,14.07
2022-08-27T00:59:33.054Z,14.80
2022-08-27T01:05:05.317Z,14.70
2022-08-27T01:07:37.845Z,14.13
2022-08-27T01:10:10.855Z,14.15
2022-08-27T01:12:39.745Z,14.43
2022-08-27T01:15:13.465Z,14.15
2022-08-27T01:17:45.153Z,14.40
2022-08-27T01:20:21.272Z,14.40
2022-08-27T01:23:12.073Z,14.02
2022-08-27T01:25:43.542Z,14.68
2022-08-27T01:28:12.506Z,13.60
2022-08-27T01:30:41.010Z,14.45
2022-08-27T01:33:16.963Z,14.85
2022-08-27T01:35:47.855Z,14.77
2022-08-27T01:38:30.116Z,15.40
2022-08-27T01:41:00.825Z,15.10
2022-08-27T01:43:31.393Z,14.77
2022-08-27T01:45:59.524Z,15.60
2022-08-27T01:48:27.438Z,15.32
2022-08-27T01:50:55.270Z,15.60
2022-08-27T01:53:25.322Z,14.68
2022-08-27T01:55:54.667Z,16.38
2022-08-27T01:58:25.320Z,15.20
2022-08-27T02:00:56.927Z,15.13
2022-08-27T02:03:27.047Z,15.30
2022-08-27T02:05:55.000Z,15.88
2022-08-27T02:08:22.934Z,15.60
2022-08-27T02:10:51.713Z,15.98
2022-08-27T02:13:19.891Z,15.30
2022-08-27T02:15:47.789Z,15.40
2022-08-27T02:18:16.262Z,15.73
2022-08-27T02:20:47.313Z,15.23
2022-08-27T02:23:16.738Z,16.65
2022-08-27T02:25:47.265Z,15.93
2022-08-27T02:28:15.284Z,16.50
2022-08-27T02:30:43.289Z,16.15
2022-08-27T02:33:11.202Z,16.92
2022-08-27T02:35:40.619Z,17.00
2022-08-27T02:38:08.811Z,16.67
2022-08-27T02:40:37.562Z,16.15
2022-08-27T02:43:05.696Z,16.33
2022-08-27T02:45:33.807Z,17.02
2022-08-27T02:48:04.846Z,17.05
2022-08-27T02:50:32.707Z,16.45
2022-08-27T02:53:02.571Z,16.10
2022-08-27T02:55:31.431Z,16.75
2022-08-27T02:57:59.316Z,17.23
2022-08-27T03:00:29.022Z,16.80
2022-08-27T03:02:58.039Z,17.58
2022-08-27T03:05:26.675Z,16.95
2022-08-27T03:07:54.407Z,18.17
2022-08-27T03:10:22.733Z,17.15
2022-08-27T03:12:50.670Z,17.38
2022-08-27T03:15:20.175Z,18.40
2022-08-27T03:18:06.672Z,17.73
2022-08-27T03:20:40.807Z,18.23
2022-08-27T03:23:10.282Z,17.13
2022-08-27T03:25:38.715Z,16.63
2022-08-27T03:28:09.552Z,18.05
2022-08-27T03:30:59.607Z,17.40
2022-08-27T03:33:29.144Z,17.30
2022-08-27T03:35:57.227Z,17.60
2022-08-27T03:38:25.735Z,17.55
2022-08-27T03:40:54.509Z,17.42
2022-08-27T03:43:23.556Z,17.45
2022-08-27T03:45:57.535Z,17.33
2022-08-27T03:48:31.956Z,17.63
2022-08-27T03:51:05.313Z,18.83
2022-08-27T03:53:33.473Z,18.03
2022-08-27T03:56:01.762Z,18.70
2022-08-27T03:58:29.791Z,17.88
2022-08-27T04:00:57.827Z,18.38
2022-08-27T04:03:25.674Z,19.40
2022-08-27T04:05:55.254Z,19.20
2022-08-27T04:08:24.342Z,17.70
2022-08-27T04:10:55.055Z,18.63
2022-08-27T04:13:23.828Z,18.17
2022-08-27T04:15:54.139Z,18.85
2022-08-27T04:18:21.994Z,18.45
2022-08-27T04:20:52.464Z,18.23
2022-08-27T04:23:21.047Z,18.65
2022-08-27T04:25:49.407Z,17.90
2022-08-27T04:28:17.620Z,18.58
2022-08-27T04:30:47.264Z,18.02
2022-08-27T04:33:15.617Z,18.20
2022-08-27T04:35:43.625Z,17.92
2022-08-27T04:38:11.702Z,18.35
2022-08-27T04:40:58.287Z,17.95
2022-08-27T04:43:28.351Z,18.52
2022-08-27T04:45:56.649Z,18.05
2022-08-27T04:48:25.806Z,18.17
2022-08-27T04:50:53.694Z,18.90
2022-08-27T04:53:22.145Z,18.05
2022-08-27T04:55:53.653Z,18.20
2022-08-27T04:58:23.808Z,18.17
2022-08-27T05:00:57.022Z,17.98
2022-08-27T05:03:26.237Z,18.02
2022-08-27T05:05:59.581Z,17.92
2022-08-27T05:08:27.644Z,17.75
2022-08-27T05:10:55.767Z,17.30
2022-08-27T05:13:24.578Z,17.00
2022-08-27T05:16:03.577Z,18.10
2022-08-27T05:18:34.222Z,16.45
2022-08-27T05:21:06.982Z,16.55
2022-08-27T05:23:39.747Z,17.00
2022-08-27T05:26:09.018Z,16.02
2022-08-27T05:28:37.023Z,16.00
2022-08-27T05:31:08.813Z,16.33
2022-08-27T05:33:38.581Z,16.65
2022-08-27T05:36:07.489Z,16.23
2022-08-27T05:38:36.276Z,16.10
2022-08-27T05:41:04.894Z,15.50
2022-08-27T05:43:32.832Z,15.70
2022-08-27T05:46:04.245Z,16.00
2022-08-27T05:48:33.841Z,14.65
2022-08-27T05:51:16.199Z,15.95
2022-08-27T05:53:59.918Z,15.45
2022-08-27T05:56:30.288Z,14.70
2022-08-27T05:59:17.124Z,14.73
2022-08-27T06:01:48.499Z,15.05
2022-08-27T06:04:17.790Z,14.50
2022-08-27T06:06:47.566Z,15.60
2022-08-27T06:09:19.152Z,14.68
2022-08-27T06:11:48.195Z,14.50
2022-08-27T06:14:16.264Z,14.65
2022-08-27T06:16:44.448Z,14.75
2022-08-27T06:19:12.859Z,14.55
2022-08-27T06:21:42.512Z,14.35
2022-08-27T06:24:13.000Z,14.98
2022-08-27T06:26:44.902Z,15.68
2022-08-27T06:29:13.936Z,14.48
2022-08-27T06:31:43.048Z,14.50
2022-08-27T06:34:11.908Z,14.80
2022-08-27T06:36:42.010Z,14.18
2022-08-27T06:39:13.820Z,13.95
2022-08-27T06:41:43.488Z,13.90
2022-08-27T06:44:15.100Z,13.95
2022-08-27T06:46:43.908Z,13.98
2022-08-27T06:49:13.289Z,14.20
2022-08-27T06:51:44.814Z,14.73
2022-08-27T06:54:13.701Z,14.63
2022-08-27T06:56:42.579Z,13.60
2022-08-27T06:59:12.410Z,14.32
2022-08-27T07:01:43.496Z,12.88
2022-08-27T07:04:14.274Z,15.45
2022-08-27T07:06:42.581Z,14.13
2022-08-27T07:09:10.862Z,14.15
2022-08-27T07:11:39.522Z,13.90
2022-08-27T07:14:08.995Z,14.05
2022-08-27T07:16:39.638Z,13.70
2022-08-27T07:19:09.546Z,13.48
2022-08-27T07:21:40.008Z,13.25
2022-08-27T07:24:09.238Z,13.57
2022-08-27T07:26:41.310Z,14.30
2022-08-27T07:29:11.219Z,13.15
2022-08-27T07:31:39.420Z,14.35
2022-08-27T07:34:08.055Z,13.65
2022-08-27T07:36:36.302Z,14.75
2022-08-27T07:39:05.347Z,13.32
2022-08-27T07:41:59.377Z,13.27
2022-08-27T07:44:34.418Z,13.85
2022-08-27T07:47:03.082Z,12.77
2022-08-27T07:49:32.057Z,12.90
2022-08-27T07:51:59.824Z,11.57
2022-08-27T07:54:27.718Z,11.27
2022-08-27T07:56:56.330Z,11.68
2022-08-27T07:59:26.209Z,10.95
2022-08-27T08:01:55.239Z,11.10
2022-08-27T08:04:23.842Z,11.85
2022-08-27T08:06:51.741Z,11.50
2022-08-27T08:09:22.278Z,12.00
2022-08-27T08:11:52.036Z,11.80
2022-08-27T08:14:20.332Z,10.75
2022-08-27T08:16:48.406Z,10.77
2022-08-27T08:19:17.379Z,11.43
2022-08-27T08:21:45.207Z,10.75
2022-08-27T08:24:12.951Z,11.10
2022-08-27T08:26:42.154Z,11.25
2022-08-27T08:29:14.737Z,10.10
2022-08-27T08:31:50.101Z,11.32
2022-08-27T08:34:19.971Z,10.63
2022-08-27T08:36:53.939Z,11.35
2022-08-27T08:39:23.552Z,11.20
2022-08-27T08:41:58.998Z,10.88
2022-08-27T08:44:36.157Z,11.82
2022-08-27T08:47:38.371Z,11.52
2022-08-27T08:50:21.207Z,10.82
2022-08-27T08:53:20.137Z,11.18
2022-08-27T08:55:55.141Z,10.25
2022-08-27T08:58:35.526Z,10.98
2022-08-27T09:01:07.229Z,11.02
2022-08-27T09:03:40.885Z,10.60
2022-08-27T09:06:18.397Z,10.50
2022-08-27T09:08:48.000Z,10.05
2022-08-27T09:11:30.087Z,10.85
2022-08-27T09:14:07.529Z,10.10
2022-08-27T09:16:39.016Z,10.77
2022-08-27T09:19:07.697Z,10.00
2022-08-27T09:21:45.044Z,9.95
2022-08-27T09:24:15.963Z,9.30
2022-08-27T09:26:45.076Z,9.00
2022-08-27T09:29:16.058Z,9.48
2022-08-27T09:31:56.572Z,9.30
2022-08-27T09:34:27.702Z,8.82
2022-08-27T09:37:01.183Z,8.50
2022-08-27T09:39:41.730Z,8.95
2022-08-27T09:42:22.420Z,9.73
2022-08-27T09:44:53.538Z,8.45
2022-08-27T09:47:22.138Z,8.18
2022-08-27T09:50:00.152Z,7.40
2022-08-27T09:52:51.323Z,7.53
2022-08-27T09:55:38.878Z,7.78
2022-08-27T09:58:27.492Z,8.20
2022-08-27T10:01:06.020Z,7.25
2022-08-27T10:03:34.650Z,7.80
2022-08-27T10:06:02.515Z,7.13
2022-08-27T10:08:42.889Z,7.50
2022-08-27T10:11:32.977Z,7.70
2022-08-27T10:14:13.181Z,7.53
2022-08-27T10:16:58.316Z,7.47
2022-08-27T10:19:46.768Z,7.28
2022-08-27T10:22:31.503Z,7.82
2022-08-27T10:25:09.913Z,6.65
2022-08-27T10:27:41.039Z,6.90
2022-08-27T10:30:19.022Z,6.65
2022-08-27T10:33:02.940Z,6.50
2022-08-27T10:35:48.309Z,5.93
2022-08-27T10:38:30.481Z,5.90
2022-08-27T10:41:18.509Z,6.00
2022-08-27T10:43:55.366Z,5.90
2022-08-27T10:46:38.417Z,5.72
2022-08-27T10:49:25.262Z,5.93
2022-08-27T10:52:10.065Z,6.15
2022-08-27T10:54:52.593Z,6.28
2022-08-27T10:57:55.137Z,6.38
2022-08-27T11:00:30.143Z,6.22
2022-08-27T11:03:07.381Z,5.80
2022-08-27T11:05:48.353Z,5.90
2022-08-27T11:08:42.139Z,5.95
2022-08-27T11:12:10.475Z,6.47
2022-08-27T11:14:37.628Z,6.07
2022-08-27T11:17:15.622Z,5.95
2022-08-27T11:19:50.749Z,6.53
2022-08-27T11:22:35.057Z,6.65
2022-08-27T11:25:22.549Z,6.10
2022-08-27T11:27:53.767Z,5.35
2022-08-27T11:30:49.112Z,6.07
2022-08-27T11:33:27.548Z,6.55
2022-08-27T11:36:18.508Z,6.85
2022-08-27T11:39:01.579Z,7.28
2022-08-27T11:41:59.191Z,7.05
2022-08-27T11:44:28.760Z,7.40
2022-08-27T11:47:09.690Z,7.22
2022-08-27T11:49:48.476Z,7.35
2022-08-27T11:52:37.606Z,7.80
2022-08-27T11:55:25.126Z,7.40
2022-08-27T11:58:08.427Z,7.55
2022-08-27T12:00:39.996Z,7.25
2022-08-27T12:03:22.515Z,6.75
2022-08-27T12:05:53.848Z,7.10
2022-08-27T12:08:24.654Z,8.13
2022-08-27T12:11:03.914Z,8.20
2022-08-27T12:13:41.876Z,7.80
2022-08-27T12:16:39.905Z,7.20
2022-08-27T12:19:16.293Z,7.63
2022-08-27T12:22:21.849Z,7.60
2022-08-27T12:24:59.736Z,8.13
2022-08-27T12:27:34.880Z,8.23
2022-08-27T12:30:28.050Z,7.32
2022-08-27T12:32:59.630Z,12.10
2022-08-27T12:35:44.259Z,7.88
2022-08-27T12:38:15.968Z,8.80
2022-08-27T12:40:53.357Z,8.40
2022-08-27T12:43:26.222Z,8.75
2022-08-27T12:46:00.862Z,8.63
2022-08-27T12:48:32.394Z,8.80
2022-08-27T12:51:39.121Z,10.40
2022-08-27T12:54:19.153Z,11.18
2022-08-27T12:57:08.642Z,10.50
2022-08-27T12:59:42.462Z,10.07
2022-08-27T13:02:48.073Z,10.13
2022-08-27T13:05:21.053Z,9.43
2022-08-27T13:07:51.113Z,9.63
2022-08-27T13:10:29.539Z,9.10
2022-08-27T13:13:12.354Z,9.05
2022-08-27T13:15:52.845Z,8.65
2022-08-27T13:18:21.798Z,8.30
2022-08-27T13:21:00.350Z,8.50
2022-08-27T13:23:28.438Z,8.52
2022-08-27T13:26:03.495Z,7.55
2022-08-27T13:28:34.104Z,8.82
2022-08-27T13:31:03.921Z,9.55
2022-08-27T13:33:35.211Z,9.13
2022-08-27T13:36:04.173Z,9.20
2022-08-27T13:38:36.302Z,9.57
2022-08-27T13:41:27.254Z,9.85
2022-08-27T13:43:59.139Z,10.55
2022-08-27T13:46:31.312Z,10.80
2022-08-27T13:49:00.442Z,11.15
2022-08-27T13:51:34.680Z,10.40
2022-08-27T13:54:18.402Z,9.57
2022-08-27T13:56:51.781Z,8.50
2022-08-27T13:59:19.464Z,7.55
2022-08-27T14:02:02.896Z,7.78
2022-08-27T14:04:48.192Z,8.60
2022-08-27T14:07:36.947Z,9.55
2022-08-27T14:10:32.567Z,8.82
2022-08-27T14:13:22.747Z,9.13
2022-08-27T14:15:55.986Z,9.10
2022-08-27T14:18:42.533Z,8.45
2022-08-27T14:21:16.468Z,8.50
2022-08-27T14:23:44.540Z,7.72
2022-08-27T14:26:15.663Z,7.28
2022-08-27T14:28:43.633Z,7.10
2022-08-27T14:31:12.259Z,7.30
2022-08-27T14:33:40.399Z,7.93
2022-08-27T14:36:09.430Z,8.15
2022-08-27T14:38:40.982Z,7.85
2022-08-27T14:41:09.281Z,7.57
2022-08-27T14:43:37.883Z,9.93
2022-08-27T14:46:11.632Z,7.88
2022-08-27T14:48:43.442Z,7.90
2022-08-27T14:51:32.358Z,7.57
2022-08-27T14:54:00.189Z,7.45
2022-08-27T14:56:28.252Z,8.13
2022-08-27T14:58:56.143Z,8.15
2022-08-27T15:01:26.306Z,7.38
2022-08-27T15:03:56.002Z,7.53
2022-08-27T15:06:25.195Z,6.90
2022-08-27T15:08:54.864Z,6.82
2022-08-27T15:11:26.510Z,7.20
2022-08-27T15:13:55.086Z,7.63
2022-08-27T15:16:34.278Z,7.13
2022-08-27T15:19:03.373Z,8.15
2022-08-27T15:21:31.584Z,7.50
2022-08-27T15:24:02.819Z,7.30
2022-08-27T15:26:31.747Z,7.25
2022-08-27T15:29:02.932Z,7.85
2022-08-27T15:31:35.000Z,7.68
2022-08-27T15:34:03.124Z,7.22
2022-08-27T15:36:30.900Z,6.60
2022-08-27T15:38:58.892Z,6.95
2022-08-27T15:41:29.247Z,7.35
2022-08-27T15:43:58.002Z,7.15
2022-08-27T15:46:26.363Z,7.35
2022-08-27T15:48:54.575Z,7.30
2022-08-27T15:51:32.150Z,7.13
2022-08-27T15:54:01.229Z,6.75
2022-08-27T15:56:33.862Z,7.10
2022-08-27T15:59:02.662Z,6.88
2022-08-27T16:01:34.277Z,6.53
2022-08-27T16:04:03.204Z,7.18
2022-08-27T16:06:31.259Z,6.70
2022-08-27T16:08:59.321Z,6.53
2022-08-27T16:11:28.014Z,6.53
2022-08-27T16:13:55.936Z,5.85
2022-08-27T16:16:28.489Z,5.65
2022-08-27T16:18:56.628Z,5.63
2022-08-27T16:21:24.474Z,5.45
2022-08-27T16:23:52.469Z,4.97
2022-08-27T16:26:20.205Z,5.20
2022-08-27T16:28:48.158Z,4.45
2022-08-27T16:31:16.302Z,5.05
2022-08-27T16:33:44.290Z,5.68
2022-08-27T16:36:13.024Z,5.20
2022-08-27T16:38:41.026Z,5.60
2022-08-27T16:41:09.201Z,5.03
2022-08-27T16:43:38.548Z,5.43
2022-08-27T16:46:07.314Z,5.25
2022-08-27T16:49:01.511Z,5.03
2022-08-27T16:54:01.878Z,5.38
2022-08-27T16:56:31.013Z,5.55
2022-08-27T16:59:01.518Z,5.20
2022-08-27T17:01:29.663Z,4.82
2022-08-27T17:04:13.373Z,5.93
2022-08-27T17:06:46.202Z,7.60
2022-08-27T17:09:14.172Z,7.07
2022-08-27T17:11:43.427Z,8.50
2022-08-27T17:14:12.267Z,7.03
2022-08-27T17:16:41.632Z,6.82
2022-08-27T17:19:10.929Z,6.68
2022-08-27T17:21:45.753Z,6.53
2022-08-27T17:24:13.995Z,6.43
2022-08-27T17:26:41.852Z,5.88
2022-08-27T17:29:09.703Z,6.28
2022-08-27T17:31:40.574Z,6.30
2022-08-27T17:34:17.865Z,6.30
2022-08-27T17:36:46.269Z,7.32
2022-08-27T17:39:14.794Z,7.30
2022-08-27T17:41:48.857Z,7.93
2022-08-27T17:44:27.302Z,8.30
2022-08-27T17:46:58.413Z,8.43
2022-08-27T17:49:27.325Z,8.30
2022-08-27T17:51:58.937Z,8.32
2022-08-27T17:54:36.770Z,27.55
2022-08-27T17:57:12.374Z,12.02
2022-08-27T17:59:40.205Z,7.72
2022-08-27T18:02:08.927Z,8.48
2022-08-27T18:04:37.829Z,7.55
2022-08-27T18:07:05.949Z,7.47
2022-08-27T18:09:33.651Z,7.85
2022-08-27T18:12:01.808Z,9.80
2022-08-27T18:14:29.812Z,9.25
2022-08-27T18:16:58.315Z,8.60
2022-08-27T18:19:26.457Z,7.90
2022-08-27T18:21:54.863Z,8.13
2022-08-27T18:24:22.702Z,8.07
2022-08-27T18:26:50.508Z,7.93
2022-08-27T18:29:18.818Z,8.48
2022-08-27T18:31:46.598Z,8.68
2022-08-27T18:34:18.757Z,7.97
2022-08-27T18:36:48.751Z,8.05
2022-08-27T18:39:16.525Z,7.65
2022-08-27T18:41:44.400Z,8.23
2022-08-27T18:44:17.124Z,8.30
2022-08-27T18:46:45.983Z,7.78
2022-08-27T18:49:13.961Z,8.68
2022-08-27T18:51:45.459Z,7.70
2022-08-27T18:54:16.206Z,8.15
2022-08-27T18:56:43.907Z,8.10
2022-08-27T18:59:13.068Z,8.32
2022-08-27T19:01:42.091Z,8.68
2022-08-27T19:04:10.436Z,8.27
2022-08-27T19:06:38.188Z,9.35
2022-08-27T19:09:06.285Z,12.35
2022-08-27T19:11:34.372Z,14.63
2022-08-27T19:14:02.086Z,9.55
2022-08-27T19:16:41.749Z,9.25
2022-08-27T19:19:11.235Z,9.60
2022-08-27T19:21:39.308Z,8.70
2022-08-27T19:24:07.714Z,9.15
2022-08-27T19:26:35.977Z,9.25
2022-08-27T19:29:04.561Z,9.73
2022-08-27T19:31:33.519Z,9.85
2022-08-27T19:34:01.308Z,10.07
2022-08-27T19:36:29.384Z,9.38
2022-08-27T19:38:57.238Z,9.35
2022-08-27T19:41:27.926Z,10.57
2022-08-27T19:43:56.050Z,10.27
2022-08-27T19:46:25.744Z,9.73
2022-08-27T19:48:55.397Z,10.70
2022-08-27T19:51:23.289Z,10.95
2022-08-27T19:53:51.192Z,10.43
2022-08-27T19:56:19.059Z,14.05
2022-08-27T19:58:47.025Z,11.27
2022-08-27T20:01:14.809Z,11.00
2022-08-27T20:03:42.865Z,10.70
2022-08-27T20:06:11.250Z,11.45
2022-08-27T20:08:39.547Z,11.13
2022-08-27T20:11:07.297Z,11.23
2022-08-27T20:13:35.450Z,10.98
2022-08-27T20:16:06.331Z,10.85
2022-08-27T20:18:36.642Z,11.65
2022-08-27T20:21:05.799Z,10.98
2022-08-27T20:23:34.392Z,11.25
2022-08-27T20:26:02.528Z,11.60
2022-08-27T20:28:39.746Z,12.00
2022-08-27T20:31:08.775Z,11.05
2022-08-27T20:33:36.807Z,11.77
2022-08-27T20:36:06.626Z,12.00
2022-08-27T20:38:35.562Z,12.70
2022-08-27T20:41:03.368Z,12.25
2022-08-27T20:43:31.149Z,13.82
2022-08-27T20:45:59.777Z,13.05
2022-08-27T20:48:28.387Z,13.00
2022-08-27T20:50:56.289Z,12.73
2022-08-27T20:53:26.135Z,12.82
2022-08-27T20:55:57.334Z,13.23
2022-08-27T20:58:44.592Z,12.23
2022-08-27T21:01:12.517Z,12.35
2022-08-27T21:03:40.610Z,13.93
2022-08-27T21:06:08.565Z,13.77
2022-08-27T21:08:39.339Z,14.57
2022-08-27T21:11:13.162Z,14.15
2022-08-27T21:13:55.384Z,13.98
2022-08-27T21:16:24.900Z,13.68
2022-08-27T21:18:54.084Z,14.05
2022-08-27T21:21:22.786Z,14.82
2022-08-27T21:23:51.240Z,14.77
2022-08-27T21:26:22.078Z,15.82
2022-08-27T21:28:49.995Z,14.80
2022-08-27T21:31:25.255Z,14.85
2022-08-27T21:33:53.143Z,14.52
2022-08-27T21:36:20.836Z,14.70
2022-08-27T21:38:48.994Z,13.80
2022-08-27T21:41:16.644Z,13.65
2022-08-27T21:43:44.511Z,14.57
2022-08-27T21:46:12.473Z,13.43
2022-08-27T21:48:40.177Z,13.95
2022-08-27T21:51:13.713Z,13.65
2022-08-27T21:53:42.988Z,13.20
2022-08-27T21:56:12.527Z,13.90
2022-08-27T21:58:40.624Z,14.35
2022-08-27T22:01:09.107Z,13.52
2022-08-27T22:03:37.424Z,12.95
2022-08-27T22:06:07.268Z,12.40
2022-08-27T22:08:35.554Z,13.50
2022-08-27T22:11:03.404Z,13.77
2022-08-27T22:13:32.267Z,12.65
2022-08-27T22:16:00.286Z,12.45
2022-08-27T22:18:28.077Z,12.15
2022-08-27T22:20:58.903Z,12.77
2022-08-27T22:23:27.487Z,12.55
2022-08-27T22:25:55.556Z,13.02
2022-08-27T22:28:23.470Z,13.68
2022-08-27T22:30:51.405Z,13.00
2022-08-27T22:33:19.309Z,13.55
2022-08-27T22:35:47.586Z,12.68
2022-08-27T22:38:15.870Z,13.57
2022-08-27T22:40:43.614Z,13.15
2022-08-27T22:43:12.351Z,13.30
2022-08-27T22:45:40.220Z,12.50
2022-08-27T22:48:07.976Z,12.73
2022-08-27T22:50:35.803Z,13.65
2022-08-27T22:53:04.084Z,13.90
2022-08-27T22:55:31.781Z,14.20
2022-08-27T22:58:01.376Z,14.88
2022-08-27T23:00:33.660Z,15.20
2022-08-27T23:03:02.064Z,14.90
2022-08-27T23:05:40.155Z,15.75
2022-08-27T23:08:12.050Z,14.63
2022-08-27T23:10:42.391Z,16.13
2022-08-27T23:13:12.129Z,15.48
2022-08-27T23:15:40.818Z,14.40
2022-08-27T23:18:08.797Z,14.20
2022-08-27T23:20:36.624Z,14.57
2022-08-27T23:23:04.847Z,14.85
2022-08-27T23:25:52.245Z,15.00
2022-08-27T23:28:20.733Z,16.20
2022-08-27T23:30:49.558Z,15.60
2022-08-27T23:33:17.806Z,20.73
2022-08-27T23:35:48.228Z,25.65
2022-08-27T23:38:20.905Z,20.20
2022-08-27T23:40:50.120Z,18.80
2022-08-27T23:43:18.494Z,17.92
2022-08-27T23:45:46.534Z,17.92
2022-08-27T23:48:14.569Z,17.23
2022-08-27T23:50:44.155Z,16.25
2022-08-27T23:53:13.164Z,16.33
2022-08-27T23:55:41.106Z,16.25
2022-08-27T23:58:10.077Z,15.77
